Oscar Tybring IV — LAGK — position and weather

sailwx.info

Track history (hours):
 
Tides and Currents Weather Stations Pressure Air Temp Water Temp Dewpoint Dewpoint Depression Visibility Wind Speed Wind Dir Waves Ship Positions

Oscar Tybring IV

Last reported at 2017-Jan-18 07:31 UTC. Time now 2017-Jan-18 08:00 UTC.
Position N 58°06' E 006°48'.

Length 20 m.

Type: SAR. MMSI: 257231500.

Date/timePositionNaut miles runAvg speedWind from/ knotsBaromVisibWave heightAir tempDewpointWater temp
2017-Jan-18 07:31N 58°06' E 006°48'0 0.0
2017-Jan-18 06:28N 58°06' E 006°48'0 0.0
2017-Jan-18 05:32N 58°06' E 006°48'0 0.0
2017-Jan-18 04:29N 58°06' E 006°48'0 0.0
2017-Jan-18 03:32N 58°06' E 006°48'0 0.0
2017-Jan-18 02:32N 58°06' E 006°48'0 0.0
2017-Jan-18 01:32N 58°06' E 006°48'0 0.0
2017-Jan-18 00:32N 58°06' E 006°48'0 0.0
2017-Jan-17 23:32N 58°06' E 006°48'0 0.0
2017-Jan-17 22:29N 58°06' E 006°48'0 0.0
2017-Jan-17 21:29N 58°06' E 006°48'0 0.0
2017-Jan-17 20:29N 58°06' E 006°48'0 0.0
2017-Jan-17 19:29N 58°06' E 006°48'0 0.0
2017-Jan-17 18:20N 58°06' E 006°48'0 0.0
2017-Jan-17 17:29N 58°06' E 006°48'0 0.0
2017-Jan-17 16:29N 58°06' E 006°48'0 0.0
2017-Jan-17 15:29N 58°06' E 006°48'0 0.0
2017-Jan-17 14:29N 58°06' E 006°48'0 0.0
2017-Jan-17 13:32N 58°06' E 006°48'0 0.0
2017-Jan-17 12:29N 58°06' E 006°48'7 7.5
2017-Jan-17 11:33N 58°06' E 007°02'2 0.7
2017-Jan-17 09:26N 58°07' E 007°03'8 9.0
2017-Jan-17 08:32N 58°06' E 006°48'0 0.0
2017-Jan-17 07:32N 58°06' E 006°48'0 0.0
2017-Jan-17 06:33N 58°06' E 006°48'0 0.0
2017-Jan-17 05:32N 58°06' E 006°48'0 0.0
2017-Jan-17 04:32N 58°06' E 006°48'0 0.0
2017-Jan-17 03:32N 58°06' E 006°48'0 0.0
2017-Jan-17 02:32N 58°06' E 006°48'0 0.0
2017-Jan-17 01:32N 58°06' E 006°48'0 0.0
2017-Jan-17 00:32N 58°06' E 006°48'0 0.0
2017-Jan-16 23:33N 58°06' E 006°48'0 0.0
2017-Jan-16 22:33N 58°06' E 006°48'0 0.0
2017-Jan-16 21:32N 58°06' E 006°48'0 0.0
2017-Jan-16 20:32N 58°06' E 006°48'0 0.0
2017-Jan-16 19:32N 58°06' E 006°48'0 0.0
2017-Jan-16 18:32N 58°06' E 006°48'0 0.0
2017-Jan-16 17:32N 58°06' E 006°48'0 0.0
2017-Jan-16 16:32N 58°06' E 006°48'0 0.0
2017-Jan-16 15:32N 58°06' E 006°48'0 0.0
2017-Jan-16 14:29N 58°06' E 006°48'0 0.0
2017-Jan-16 13:32N 58°06' E 006°48'2 2.0
2017-Jan-16 12:27N 58°04' E 006°51'1 1.6
2017-Jan-16 11:33N 58°03' E 006°49'2 2.1
2017-Jan-16 10:33N 58°05' E 006°50'1 0.8
2017-Jan-16 09:32N 58°06' E 006°48'0 0.0
2017-Jan-16 08:32N 58°06' E 006°48'0 0.0
2017-Jan-16 07:32N 58°06' E 006°48'0 0.0
2017-Jan-16 06:32N 58°06' E 006°48'0 0.0
2017-Jan-16 05:32N 58°06' E 006°48'0 0.0
2017-Jan-16 04:32N 58°06' E 006°48'0 0.0
2017-Jan-16 03:32N 58°06' E 006°48'0 0.0
2017-Jan-16 02:32N 58°06' E 006°48'0 0.0
2017-Jan-16 01:32N 58°06' E 006°48'0 0.0
2017-Jan-16 00:32N 58°06' E 006°48'0 0.0
2017-Jan-15 23:32N 58°06' E 006°48'0 0.0
2017-Jan-15 22:32N 58°06' E 006°48'0 0.0
2017-Jan-15 21:32N 58°06' E 006°48'0 0.0
2017-Jan-15 20:32N 58°06' E 006°48'0 0.0
2017-Jan-15 19:32N 58°06' E 006°48'0 0.0
2017-Jan-15 18:32N 58°06' E 006°48'0 0.0
2017-Jan-15 17:32N 58°06' E 006°48'0 0.0
2017-Jan-15 16:32N 58°06' E 006°48'0 0.0
2017-Jan-15 15:32N 58°06' E 006°48'0 0.0
2017-Jan-15 14:32N 58°06' E 006°48'0 0.2
2017-Jan-15 13:32N 58°06' E 006°49'3 2.9
2017-Jan-15 12:33N 58°03' E 006°50'3 3.0
2017-Jan-15 11:33N 58°06' E 006°48'0 0.0
2017-Jan-15 10:33N 58°06' E 006°48'0 0.0
2017-Jan-15 09:33N 58°06' E 006°48'0 0.0
2017-Jan-15 08:33N 58°06' E 006°48'0 0.0
2017-Jan-15 07:33N 58°06' E 006°48'0 0.0
2017-Jan-15 06:27N 58°06' E 006°48'0 0.0
2017-Jan-15 05:33N 58°06' E 006°48'0 0.0
2017-Jan-15 04:33N 58°06' E 006°48'0 0.0
2017-Jan-15 03:33N 58°06' E 006°48'0 0.0
2017-Jan-15 02:30N 58°06' E 006°48'0 0.0
2017-Jan-15 01:33N 58°06' E 006°48'0 0.0
2017-Jan-15 00:33N 58°06' E 006°48'0 0.0
2017-Jan-14 23:33N 58°06' E 006°48'0 0.0
2017-Jan-14 22:30N 58°06' E 006°48'0 0.0
2017-Jan-14 21:30N 58°06' E 006°48'5 5.6
2017-Jan-14 20:32N 58°02' E 006°41'5719.0
2017-Jan-14 17:33N 58°43' E 005°26'2019.7
2017-Jan-14 16:33N 59°03' E 005°32'243 4.8
2017-Jan-12 13:26N 63°02' E 007°10'1516.9
2017-Jan-12 12:34N 63°09' E 007°39'4219.2
2017-Jan-12 10:23N 63°29' E 009°00'1618.9
2017-Jan-12 09:34N 63°38' E 009°29'78 4.5
2017-Jan-11 16:23N 64°45' E 011°00'1618.8
2017-Jan-11 15:33N 64°56' E 011°26'1919.3
2017-Jan-11 14:33N 65°12' E 011°53'75 1.7
2017-Jan-09 19:21N 66°22' E 012°58'3719.8
2017-Jan-09 17:29N 66°57' E 013°29'1920.5
2017-Jan-09 16:33N 67°10' E 014°03'13919.9
2017-Jan-09 09:33N 69°06' E 017°30'  
Track history (hours):
 
Tides and Currents Weather Stations Pressure Air Temp Water Temp Dewpoint Dewpoint Depression Visibility Wind Speed Wind Dir Waves Ship Positions

Oscar Tybring IV

Last reported at 2017-Jan-18 07:31 UTC. Time now 2017-Jan-18 08:00 UTC.
Position N 58°06' E 006°48'.

Length 20 m.

Type: SAR. MMSI: 257231500.

Date/timePositionNaut miles runAvg speedWind from/ knotsBaromVisibWave heightAir tempDewpointWater temp
2017-Jan-18 07:31N 58°06' E 006°48'0 0.0
2017-Jan-18 06:28N 58°06' E 006°48'0 0.0
2017-Jan-18 05:32N 58°06' E 006°48'0 0.0
2017-Jan-18 04:29N 58°06' E 006°48'0 0.0
2017-Jan-18 03:32N 58°06' E 006°48'0 0.0
2017-Jan-18 02:32N 58°06' E 006°48'0 0.0
2017-Jan-18 01:32N 58°06' E 006°48'0 0.0
2017-Jan-18 00:32N 58°06' E 006°48'0 0.0
2017-Jan-17 23:32N 58°06' E 006°48'0 0.0
2017-Jan-17 22:29N 58°06' E 006°48'0 0.0
2017-Jan-17 21:29N 58°06' E 006°48'0 0.0
2017-Jan-17 20:29N 58°06' E 006°48'0 0.0
2017-Jan-17 19:29N 58°06' E 006°48'0 0.0
2017-Jan-17 18:20N 58°06' E 006°48'0 0.0
2017-Jan-17 17:29N 58°06' E 006°48'0 0.0
2017-Jan-17 16:29N 58°06' E 006°48'0 0.0
2017-Jan-17 15:29N 58°06' E 006°48'0 0.0
2017-Jan-17 14:29N 58°06' E 006°48'0 0.0
2017-Jan-17 13:32N 58°06' E 006°48'0 0.0
2017-Jan-17 12:29N 58°06' E 006°48'7 7.5
2017-Jan-17 11:33N 58°06' E 007°02'2 0.7
2017-Jan-17 09:26N 58°07' E 007°03'8 9.0
2017-Jan-17 08:32N 58°06' E 006°48'0 0.0
2017-Jan-17 07:32N 58°06' E 006°48'0 0.0
2017-Jan-17 06:33N 58°06' E 006°48'0 0.0
2017-Jan-17 05:32N 58°06' E 006°48'0 0.0
2017-Jan-17 04:32N 58°06' E 006°48'0 0.0
2017-Jan-17 03:32N 58°06' E 006°48'0 0.0
2017-Jan-17 02:32N 58°06' E 006°48'0 0.0
2017-Jan-17 01:32N 58°06' E 006°48'0 0.0
2017-Jan-17 00:32N 58°06' E 006°48'0 0.0
2017-Jan-16 23:33N 58°06' E 006°48'0 0.0
2017-Jan-16 22:33N 58°06' E 006°48'0 0.0
2017-Jan-16 21:32N 58°06' E 006°48'0 0.0
2017-Jan-16 20:32N 58°06' E 006°48'0 0.0
2017-Jan-16 19:32N 58°06' E 006°48'0 0.0
2017-Jan-16 18:32N 58°06' E 006°48'0 0.0
2017-Jan-16 17:32N 58°06' E 006°48'0 0.0
2017-Jan-16 16:32N 58°06' E 006°48'0 0.0
2017-Jan-16 15:32N 58°06' E 006°48'0 0.0
2017-Jan-16 14:29N 58°06' E 006°48'0 0.0
2017-Jan-16 13:32N 58°06' E 006°48'2 2.0
2017-Jan-16 12:27N 58°04' E 006°51'1 1.6
2017-Jan-16 11:33N 58°03' E 006°49'2 2.1
2017-Jan-16 10:33N 58°05' E 006°50'1 0.8
2017-Jan-16 09:32N 58°06' E 006°48'0 0.0
2017-Jan-16 08:32N 58°06' E 006°48'0 0.0
2017-Jan-16 07:32N 58°06' E 006°48'0 0.0
2017-Jan-16 06:32N 58°06' E 006°48'0 0.0
2017-Jan-16 05:32N 58°06' E 006°48'0 0.0
2017-Jan-16 04:32N 58°06' E 006°48'0 0.0
2017-Jan-16 03:32N 58°06' E 006°48'0 0.0
2017-Jan-16 02:32N 58°06' E 006°48'0 0.0
2017-Jan-16 01:32N 58°06' E 006°48'0 0.0
2017-Jan-16 00:32N 58°06' E 006°48'0 0.0
2017-Jan-15 23:32N 58°06' E 006°48'0 0.0
2017-Jan-15 22:32N 58°06' E 006°48'0 0.0
2017-Jan-15 21:32N 58°06' E 006°48'0 0.0
2017-Jan-15 20:32N 58°06' E 006°48'0 0.0
2017-Jan-15 19:32N 58°06' E 006°48'0 0.0
2017-Jan-15 18:32N 58°06' E 006°48'0 0.0
2017-Jan-15 17:32N 58°06' E 006°48'0 0.0
2017-Jan-15 16:32N 58°06' E 006°48'0 0.0
2017-Jan-15 15:32N 58°06' E 006°48'0 0.0
2017-Jan-15 14:32N 58°06' E 006°48'0 0.2
2017-Jan-15 13:32N 58°06' E 006°49'3 2.9
2017-Jan-15 12:33N 58°03' E 006°50'3 3.0
2017-Jan-15 11:33N 58°06' E 006°48'0 0.0
2017-Jan-15 10:33N 58°06' E 006°48'0 0.0
2017-Jan-15 09:33N 58°06' E 006°48'0 0.0
2017-Jan-15 08:33N 58°06' E 006°48'0 0.0
2017-Jan-15 07:33N 58°06' E 006°48'0 0.0
2017-Jan-15 06:27N 58°06' E 006°48'0 0.0
2017-Jan-15 05:33N 58°06' E 006°48'0 0.0
2017-Jan-15 04:33N 58°06' E 006°48'0 0.0
2017-Jan-15 03:33N 58°06' E 006°48'0 0.0
2017-Jan-15 02:30N 58°06' E 006°48'0 0.0
2017-Jan-15 01:33N 58°06' E 006°48'0 0.0
2017-Jan-15 00:33N 58°06' E 006°48'0 0.0
2017-Jan-14 23:33N 58°06' E 006°48'0 0.0
2017-Jan-14 22:30N 58°06' E 006°48'0 0.0
2017-Jan-14 21:30N 58°06' E 006°48'5 5.6
2017-Jan-14 20:32N 58°02' E 006°41'5719.0
2017-Jan-14 17:33N 58°43' E 005°26'2019.7
2017-Jan-14 16:33N 59°03' E 005°32'243 4.8
2017-Jan-12 13:26N 63°02' E 007°10'1516.9
2017-Jan-12 12:34N 63°09' E 007°39'4219.2
2017-Jan-12 10:23N 63°29' E 009°00'1618.9
2017-Jan-12 09:34N 63°38' E 009°29'78 4.5
2017-Jan-11 16:23N 64°45' E 011°00'1618.8
2017-Jan-11 15:33N 64°56' E 011°26'1919.3
2017-Jan-11 14:33N 65°12' E 011°53'75 1.7
2017-Jan-09 19:21N 66°22' E 012°58'3719.8
2017-Jan-09 17:29N 66°57' E 013°29'1920.5
2017-Jan-09 16:33N 67°10' E 014°03'13919.9
2017-Jan-09 09:33N 69°06' E 017°30'  

Dump ship's entire track history